sensor_id;sensor_type;location;lat;lon;timestamp;pressure;altitude;pressure_sealevel;temperature;humidity
62928;BME280;51070;52.236;-0.892;2023-01-28T00:01:15;102334.08;;;4.30;71.98
62928;BME280;51070;52.236;-0.892;2023-01-28T00:03:41;102333.58;;;4.28;71.75
62928;BME280;51070;52.236;-0.892;2023-01-28T00:06:10;102328.35;;;4.27;71.70
62928;BME280;51070;52.236;-0.892;2023-01-28T00:08:36;102328.95;;;4.26;71.70
62928;BME280;51070;52.236;-0.892;2023-01-28T00:11:04;102328.85;;;4.25;71.56
62928;BME280;51070;52.236;-0.892;2023-01-28T00:13:30;102326.17;;;4.23;71.94
62928;BME280;51070;52.236;-0.892;2023-01-28T00:15:58;102327.53;;;4.23;72.49
62928;BME280;51070;52.236;-0.892;2023-01-28T00:18:28;102329.16;;;4.22;72.45
62928;BME280;51070;52.236;-0.892;2023-01-28T00:21:01;102323.11;;;4.21;72.71
62928;BME280;51070;52.236;-0.892;2023-01-28T00:23:29;102323.77;;;4.19;72.58
62928;BME280;51070;52.236;-0.892;2023-01-28T00:25:59;102327.61;;;4.18;72.88
62928;BME280;51070;52.236;-0.892;2023-01-28T00:28:25;102326.98;;;4.18;73.20
62928;BME280;51070;52.236;-0.892;2023-01-28T00:30:51;102322.46;;;4.20;72.92
62928;BME280;51070;52.236;-0.892;2023-01-28T00:33:16;102319.58;;;4.22;73.11
62928;BME280;51070;52.236;-0.892;2023-01-28T00:35:42;102318.27;;;4.25;73.00
62928;BME280;51070;52.236;-0.892;2023-01-28T00:38:08;102319.51;;;4.28;73.01
62928;BME280;51070;52.236;-0.892;2023-01-28T00:40:35;102323.20;;;4.30;73.20
62928;BME280;51070;52.236;-0.892;2023-01-28T00:43:00;102325.05;;;4.32;72.96
62928;BME280;51070;52.236;-0.892;2023-01-28T00:45:26;102320.96;;;4.33;72.86
62928;BME280;51070;52.236;-0.892;2023-01-28T00:47:52;102315.74;;;4.32;72.90
62928;BME280;51070;52.236;-0.892;2023-01-28T00:50:18;102316.67;;;4.30;72.76
62928;BME280;51070;52.236;-0.892;2023-01-28T00:52:46;102318.21;;;4.30;72.52
62928;BME280;51070;52.236;-0.892;2023-01-28T00:55:11;102314.88;;;4.29;72.26
62928;BME280;51070;52.236;-0.892;2023-01-28T00:57:37;102315.46;;;4.28;72.48
62928;BME280;51070;52.236;-0.892;2023-01-28T01:00:04;102311.26;;;4.25;72.53
62928;BME280;51070;52.236;-0.892;2023-01-28T01:02:29;102309.86;;;4.20;72.68
62928;BME280;51070;52.236;-0.892;2023-01-28T01:04:54;102306.98;;;4.19;72.78
62928;BME280;51070;52.236;-0.892;2023-01-28T01:07:24;102305.37;;;4.16;72.63
62928;BME280;51070;52.236;-0.892;2023-01-28T01:10:00;102300.39;;;4.13;72.51
62928;BME280;51070;52.236;-0.892;2023-01-28T01:12:26;102299.60;;;4.14;72.78
62928;BME280;51070;52.236;-0.892;2023-01-28T01:14:52;102293.27;;;4.18;72.99
62928;BME280;51070;52.236;-0.892;2023-01-28T01:17:17;102292.37;;;4.22;72.82
62928;BME280;51070;52.236;-0.892;2023-01-28T01:19:44;102285.54;;;4.24;72.33
62928;BME280;51070;52.236;-0.892;2023-01-28T01:22:09;102281.52;;;4.25;72.34
62928;BME280;51070;52.236;-0.892;2023-01-28T01:24:35;102283.47;;;4.26;72.34
62928;BME280;51070;52.236;-0.892;2023-01-28T01:27:00;102280.41;;;4.27;72.37
62928;BME280;51070;52.236;-0.892;2023-01-28T01:29:25;102281.63;;;4.25;72.26
62928;BME280;51070;52.236;-0.892;2023-01-28T01:31:51;102283.73;;;4.23;72.08
62928;BME280;51070;52.236;-0.892;2023-01-28T01:34:16;102287.55;;;4.21;71.89
62928;BME280;51070;52.236;-0.892;2023-01-28T01:36:43;102282.36;;;4.19;71.62
62928;BME280;51070;52.236;-0.892;2023-01-28T01:39:11;102281.21;;;4.17;71.71
62928;BME280;51070;52.236;-0.892;2023-01-28T01:41:37;102285.73;;;4.16;72.11
62928;BME280;51070;52.236;-0.892;2023-01-28T01:44:05;102284.80;;;4.15;72.10
62928;BME280;51070;52.236;-0.892;2023-01-28T01:46:44;102285.61;;;4.15;72.12
62928;BME280;51070;52.236;-0.892;2023-01-28T01:49:20;102282.95;;;4.13;72.26
62928;BME280;51070;52.236;-0.892;2023-01-28T01:51:51;102283.96;;;4.14;72.13
62928;BME280;51070;52.236;-0.892;2023-01-28T01:54:20;102287.30;;;4.12;72.11
62928;BME280;51070;52.236;-0.892;2023-01-28T01:56:48;102282.45;;;4.12;71.88
62928;BME280;51070;52.236;-0.892;2023-01-28T01:59:18;102284.27;;;4.11;72.05
62928;BME280;51070;52.236;-0.892;2023-01-28T02:01:45;102283.37;;;4.10;71.88
62928;BME280;51070;52.236;-0.892;2023-01-28T02:04:28;102283.63;;;4.09;71.73
62928;BME280;51070;52.236;-0.892;2023-01-28T02:06:57;102285.21;;;4.08;71.90
62928;BME280;51070;52.236;-0.892;2023-01-28T02:09:32;102292.88;;;4.07;71.77
62928;BME280;51070;52.236;-0.892;2023-01-28T02:12:08;102295.64;;;4.06;71.62
62928;BME280;51070;52.236;-0.892;2023-01-28T02:14:45;102297.27;;;4.05;71.72
62928;BME280;51070;52.236;-0.892;2023-01-28T02:17:12;102301.90;;;4.05;71.97
62928;BME280;51070;52.236;-0.892;2023-01-28T02:19:43;102312.73;;;4.06;71.72
62928;BME280;51070;52.236;-0.892;2023-01-28T02:22:17;102317.09;;;4.09;71.93
62928;BME280;51070;52.236;-0.892;2023-01-28T02:33:26;102304.14;;;4.19;71.62
62928;BME280;51070;52.236;-0.892;2023-01-28T02:35:54;102301.32;;;4.20;71.91
62928;BME280;51070;52.236;-0.892;2023-01-28T02:38:25;102305.09;;;4.20;72.05
62928;BME280;51070;52.236;-0.892;2023-01-28T02:41:00;102309.14;;;4.22;72.05
62928;BME280;51070;52.236;-0.892;2023-01-28T02:43:41;102307.84;;;4.23;71.90
62928;BME280;51070;52.236;-0.892;2023-01-28T02:49:16;102299.11;;;4.23;71.50
62928;BME280;51070;52.236;-0.892;2023-01-28T02:55:01;102300.88;;;4.21;72.21
62928;BME280;51070;52.236;-0.892;2023-01-28T03:02:40;102311.85;;;4.17;72.19
62928;BME280;51070;52.236;-0.892;2023-01-28T03:05:49;102307.20;;;4.17;72.21
62928;BME280;51070;52.236;-0.892;2023-01-28T03:08:46;102304.05;;;4.16;72.26
62928;BME280;51070;52.236;-0.892;2023-01-28T03:11:35;102307.48;;;4.14;72.33
62928;BME280;51070;52.236;-0.892;2023-01-28T03:14:22;102308.09;;;4.13;72.55
62928;BME280;51070;52.236;-0.892;2023-01-28T03:17:16;102311.59;;;4.17;72.56
62928;BME280;51070;52.236;-0.892;2023-01-28T03:20:03;102306.55;;;4.19;72.57
62928;BME280;51070;52.236;-0.892;2023-01-28T03:22:50;102298.48;;;4.23;72.48
62928;BME280;51070;52.236;-0.892;2023-01-28T03:25:39;102294.58;;;4.26;72.63
62928;BME280;51070;52.236;-0.892;2023-01-28T03:28:27;102294.52;;;4.25;72.74
62928;BME280;51070;52.236;-0.892;2023-01-28T03:31:14;102294.09;;;4.24;72.86
62928;BME280;51070;52.236;-0.892;2023-01-28T03:33:59;102290.77;;;4.23;72.73
62928;BME280;51070;52.236;-0.892;2023-01-28T03:36:45;102290.67;;;4.22;72.70
62928;BME280;51070;52.236;-0.892;2023-01-28T03:39:12;102290.99;;;4.20;72.71
62928;BME280;51070;52.236;-0.892;2023-01-28T03:41:38;102286.16;;;4.17;72.82
62928;BME280;51070;52.236;-0.892;2023-01-28T03:44:03;102284.20;;;4.16;72.92
62928;BME280;51070;52.236;-0.892;2023-01-28T03:46:47;102284.98;;;4.15;72.94
62928;BME280;51070;52.236;-0.892;2023-01-28T03:49:15;102289.08;;;4.15;73.19
62928;BME280;51070;52.236;-0.892;2023-01-28T03:51:40;102290.62;;;4.15;73.06
62928;BME280;51070;52.236;-0.892;2023-01-28T03:54:05;102293.73;;;4.13;73.06
62928;BME280;51070;52.236;-0.892;2023-01-28T03:56:31;102295.74;;;4.11;73.09
62928;BME280;51070;52.236;-0.892;2023-01-28T03:58:58;102295.17;;;4.10;73.34
62928;BME280;51070;52.236;-0.892;2023-01-28T04:01:23;102287.67;;;4.11;73.49
62928;BME280;51070;52.236;-0.892;2023-01-28T04:03:50;102285.04;;;4.12;73.37
62928;BME280;51070;52.236;-0.892;2023-01-28T04:06:15;102280.40;;;4.14;73.64
62928;BME280;51070;52.236;-0.892;2023-01-28T04:08:41;102285.05;;;4.16;73.53
62928;BME280;51070;52.236;-0.892;2023-01-28T04:11:10;102285.34;;;4.18;73.83
62928;BME280;51070;52.236;-0.892;2023-01-28T04:13:44;102279.52;;;4.19;73.71
62928;BME280;51070;52.236;-0.892;2023-01-28T04:16:12;102280.76;;;4.20;73.74
62928;BME280;51070;52.236;-0.892;2023-01-28T04:18:37;102277.38;;;4.20;73.71
62928;BME280;51070;52.236;-0.892;2023-01-28T04:21:03;102280.65;;;4.21;73.55
62928;BME280;51070;52.236;-0.892;2023-01-28T04:23:28;102279.06;;;4.20;73.51
62928;BME280;51070;52.236;-0.892;2023-01-28T04:25:54;102278.16;;;4.20;73.38
62928;BME280;51070;52.236;-0.892;2023-01-28T04:28:20;102280.85;;;4.17;73.30
62928;BME280;51070;52.236;-0.892;2023-01-28T04:30:45;102282.95;;;4.13;73.63
62928;BME280;51070;52.236;-0.892;2023-01-28T04:33:11;102281.49;;;4.11;73.42
62928;BME280;51070;52.236;-0.892;2023-01-28T04:35:36;102289.00;;;4.06;73.55
62928;BME280;51070;52.236;-0.892;2023-01-28T04:38:02;102291.86;;;4.03;73.81
62928;BME280;51070;52.236;-0.892;2023-01-28T04:40:27;102292.64;;;4.02;74.09
62928;BME280;51070;52.236;-0.892;2023-01-28T04:42:54;102289.55;;;4.02;73.70
62928;BME280;51070;52.236;-0.892;2023-01-28T04:45:20;102286.50;;;4.03;74.34
62928;BME280;51070;52.236;-0.892;2023-01-28T04:47:46;102287.84;;;4.04;73.95
62928;BME280;51070;52.236;-0.892;2023-01-28T04:50:12;102297.77;;;4.05;74.23
62928;BME280;51070;52.236;-0.892;2023-01-28T04:52:37;102305.09;;;4.06;74.54
62928;BME280;51070;52.236;-0.892;2023-01-28T04:55:03;102299.19;;;4.07;74.68
62928;BME280;51070;52.236;-0.892;2023-01-28T04:57:29;102297.88;;;4.08;74.49
62928;BME280;51070;52.236;-0.892;2023-01-28T04:59:54;102298.77;;;4.08;74.66
62928;BME280;51070;52.236;-0.892;2023-01-28T05:02:20;102295.70;;;4.09;74.62
62928;BME280;51070;52.236;-0.892;2023-01-28T05:04:45;102296.16;;;4.08;74.78
62928;BME280;51070;52.236;-0.892;2023-01-28T05:07:11;102297.75;;;4.06;74.85
62928;BME280;51070;52.236;-0.892;2023-01-28T05:09:37;102294.39;;;4.05;74.38
62928;BME280;51070;52.236;-0.892;2023-01-28T05:12:02;102292.97;;;4.04;74.73
62928;BME280;51070;52.236;-0.892;2023-01-28T05:14:28;102289.09;;;4.03;74.92
62928;BME280;51070;52.236;-0.892;2023-01-28T05:16:53;102293.91;;;4.01;74.97
62928;BME280;51070;52.236;-0.892;2023-01-28T05:19:19;102293.70;;;3.99;74.97
62928;BME280;51070;52.236;-0.892;2023-01-28T05:21:44;102286.22;;;3.98;75.28
62928;BME280;51070;52.236;-0.892;2023-01-28T05:24:10;102282.21;;;3.95;75.41
62928;BME280;51070;52.236;-0.892;2023-01-28T05:26:36;102289.25;;;3.89;75.50
62928;BME280;51070;52.236;-0.892;2023-01-28T05:29:02;102292.27;;;3.86;75.80
62928;BME280;51070;52.236;-0.892;2023-01-28T05:31:27;102289.33;;;3.86;75.82
62928;BME280;51070;52.236;-0.892;2023-01-28T05:33:52;102284.55;;;3.88;76.17
62928;BME280;51070;52.236;-0.892;2023-01-28T05:36:18;102281.62;;;3.90;75.94
62928;BME280;51070;52.236;-0.892;2023-01-28T05:38:43;102286.58;;;3.92;76.11
62928;BME280;51070;52.236;-0.892;2023-01-28T05:41:09;102286.64;;;3.94;76.11
62928;BME280;51070;52.236;-0.892;2023-01-28T05:43:34;102283.77;;;3.97;76.28
62928;BME280;51070;52.236;-0.892;2023-01-28T05:46:00;102286.73;;;3.98;76.04
62928;BME280;51070;52.236;-0.892;2023-01-28T05:48:25;102283.45;;;3.97;75.99
62928;BME280;51070;52.236;-0.892;2023-01-28T05:50:50;102282.52;;;3.96;76.00
62928;BME280;51070;52.236;-0.892;2023-01-28T05:53:16;102287.88;;;3.95;75.89
62928;BME280;51070;52.236;-0.892;2023-01-28T05:55:41;102287.52;;;3.95;75.95
62928;BME280;51070;52.236;-0.892;2023-01-28T05:58:07;102291.64;;;3.93;75.84
62928;BME280;51070;52.236;-0.892;2023-01-28T06:00:32;102290.06;;;3.91;75.95
62928;BME280;51070;52.236;-0.892;2023-01-28T06:02:58;102294.31;;;3.88;75.97
62928;BME280;51070;52.236;-0.892;2023-01-28T06:05:23;102295.90;;;3.87;76.05
62928;BME280;51070;52.236;-0.892;2023-01-28T06:07:48;102298.13;;;3.85;76.17
62928;BME280;51070;52.236;-0.892;2023-01-28T06:10:15;102301.23;;;3.83;76.12
62928;BME280;51070;52.236;-0.892;2023-01-28T06:12:43;102294.74;;;3.81;76.39
62928;BME280;51070;52.236;-0.892;2023-01-28T06:15:10;102298.95;;;3.80;76.68
62928;BME280;51070;52.236;-0.892;2023-01-28T06:17:35;102301.25;;;3.81;76.64
62928;BME280;51070;52.236;-0.892;2023-01-28T06:20:01;102291.23;;;3.82;76.76
62928;BME280;51070;52.236;-0.892;2023-01-28T06:22:26;102286.91;;;3.84;76.64
62928;BME280;51070;52.236;-0.892;2023-01-28T06:24:51;102295.45;;;3.86;76.81
62928;BME280;51070;52.236;-0.892;2023-01-28T06:27:17;102295.39;;;3.89;77.27
62928;BME280;51070;52.236;-0.892;2023-01-28T06:29:42;102298.23;;;3.92;76.79
62928;BME280;51070;52.236;-0.892;2023-01-28T06:32:07;102301.83;;;3.94;76.78
62928;BME280;51070;52.236;-0.892;2023-01-28T06:34:33;102295.77;;;3.93;76.83
62928;BME280;51070;52.236;-0.892;2023-01-28T06:36:58;102295.80;;;3.93;76.68
62928;BME280;51070;52.236;-0.892;2023-01-28T06:39:23;102300.34;;;3.92;76.73
62928;BME280;51070;52.236;-0.892;2023-01-28T06:41:51;102304.71;;;3.90;76.97
62928;BME280;51070;52.236;-0.892;2023-01-28T06:44:16;102304.55;;;3.88;76.76
62928;BME280;51070;52.236;-0.892;2023-01-28T06:46:42;102299.55;;;3.85;76.85
62928;BME280;51070;52.236;-0.892;2023-01-28T06:49:07;102298.55;;;3.83;76.83
62928;BME280;51070;52.236;-0.892;2023-01-28T06:51:32;102298.70;;;3.81;77.09
62928;BME280;51070;52.236;-0.892;2023-01-28T06:53:58;102305.89;;;3.79;77.29
62928;BME280;51070;52.236;-0.892;2023-01-28T06:56:23;102302.77;;;3.78;77.05
62928;BME280;51070;52.236;-0.892;2023-01-28T06:58:49;102301.53;;;3.78;77.43
62928;BME280;51070;52.236;-0.892;2023-01-28T07:01:14;102301.98;;;3.79;77.40
62928;BME280;51070;52.236;-0.892;2023-01-28T07:03:39;102295.10;;;3.81;77.45
62928;BME280;51070;52.236;-0.892;2023-01-28T07:06:05;102297.59;;;3.82;77.41
62928;BME280;51070;52.236;-0.892;2023-01-28T07:08:31;102302.68;;;3.84;77.60
62928;BME280;51070;52.236;-0.892;2023-01-28T07:10:57;102305.89;;;3.86;77.74
62928;BME280;51070;52.236;-0.892;2023-01-28T07:13:23;102308.27;;;3.89;77.91
62928;BME280;51070;52.236;-0.892;2023-01-28T07:15:48;102309.67;;;3.92;77.80
62928;BME280;51070;52.236;-0.892;2023-01-28T07:18:15;102311.20;;;3.94;77.99
62928;BME280;51070;52.236;-0.892;2023-01-28T07:20:40;102303.90;;;3.92;77.76
62928;BME280;51070;52.236;-0.892;2023-01-28T07:23:06;102303.25;;;3.91;77.86
62928;BME280;51070;52.236;-0.892;2023-01-28T07:25:31;102304.80;;;3.89;77.69
62928;BME280;51070;52.236;-0.892;2023-01-28T07:27:57;102296.33;;;3.86;78.00
62928;BME280;51070;52.236;-0.892;2023-01-28T07:30:22;102302.27;;;3.83;78.02
62928;BME280;51070;52.236;-0.892;2023-01-28T07:32:55;102309.73;;;3.82;78.22
62928;BME280;51070;52.236;-0.892;2023-01-28T07:35:22;102315.27;;;3.83;78.26
62928;BME280;51070;52.236;-0.892;2023-01-28T07:37:52;102316.02;;;3.84;78.12
62928;BME280;51070;52.236;-0.892;2023-01-28T07:40:18;102317.16;;;3.85;78.27
62928;BME280;51070;52.236;-0.892;2023-01-28T07:42:44;102311.98;;;3.87;78.32
62928;BME280;51070;52.236;-0.892;2023-01-28T07:45:10;102308.89;;;3.88;78.27
62928;BME280;51070;52.236;-0.892;2023-01-28T07:47:35;102307.20;;;3.89;78.37
62928;BME280;51070;52.236;-0.892;2023-01-28T07:50:01;102303.79;;;3.89;78.55
62928;BME280;51070;52.236;-0.892;2023-01-28T07:52:26;102303.30;;;3.89;78.37
62928;BME280;51070;52.236;-0.892;2023-01-28T07:54:51;102298.42;;;3.88;78.32
62928;BME280;51070;52.236;-0.892;2023-01-28T07:57:17;102302.70;;;3.86;78.31
62928;BME280;51070;52.236;-0.892;2023-01-28T07:59:48;102307.71;;;3.85;78.48
62928;BME280;51070;52.236;-0.892;2023-01-28T08:02:15;102309.71;;;3.84;78.67
62928;BME280;51070;52.236;-0.892;2023-01-28T08:04:41;102315.15;;;3.84;78.65
62928;BME280;51070;52.236;-0.892;2023-01-28T08:07:07;102312.78;;;3.82;78.56
62928;BME280;51070;52.236;-0.892;2023-01-28T08:09:32;102319.21;;;3.81;78.55
62928;BME280;51070;52.236;-0.892;2023-01-28T08:12:00;102322.26;;;3.83;78.73
62928;BME280;51070;52.236;-0.892;2023-01-28T08:14:27;102326.43;;;3.84;79.07
62928;BME280;51070;52.236;-0.892;2023-01-28T08:16:52;102333.24;;;3.87;79.19
62928;BME280;51070;52.236;-0.892;2023-01-28T08:19:18;102333.15;;;3.92;79.08
62928;BME280;51070;52.236;-0.892;2023-01-28T08:21:48;102327.19;;;3.97;78.87
62928;BME280;51070;52.236;-0.892;2023-01-28T08:24:13;102330.69;;;3.99;78.59
62928;BME280;51070;52.236;-0.892;2023-01-28T08:26:39;102341.97;;;4.01;78.79
62928;BME280;51070;52.236;-0.892;2023-01-28T08:29:04;102344.59;;;4.02;78.78
62928;BME280;51070;52.236;-0.892;2023-01-28T08:31:30;102348.02;;;4.04;78.83
62928;BME280;51070;52.236;-0.892;2023-01-28T08:33:55;102349.80;;;4.05;78.54
62928;BME280;51070;52.236;-0.892;2023-01-28T08:36:21;102351.35;;;4.05;78.75
62928;BME280;51070;52.236;-0.892;2023-01-28T08:38:53;102355.30;;;4.05;78.47
62928;BME280;51070;52.236;-0.892;2023-01-28T08:41:22;102361.58;;;4.07;78.73
62928;BME280;51070;52.236;-0.892;2023-01-28T08:43:48;102363.56;;;4.08;78.33
62928;BME280;51070;52.236;-0.892;2023-01-28T08:46:14;102364.25;;;4.08;78.50
62928;BME280;51070;52.236;-0.892;2023-01-28T08:48:40;102350.67;;;4.07;78.40
62928;BME280;51070;52.236;-0.892;2023-01-28T08:51:05;102348.58;;;4.09;78.31
62928;BME280;51070;52.236;-0.892;2023-01-28T08:53:31;102349.30;;;4.11;78.32
62928;BME280;51070;52.236;-0.892;2023-01-28T08:55:56;102353.46;;;4.14;78.12
62928;BME280;51070;52.236;-0.892;2023-01-28T08:58:22;102361.25;;;4.19;77.97
62928;BME280;51070;52.236;-0.892;2023-01-28T09:00:48;102365.44;;;4.24;78.12
62928;BME280;51070;52.236;-0.892;2023-01-28T09:03:14;102365.05;;;4.30;78.25
62928;BME280;51070;52.236;-0.892;2023-01-28T09:05:40;102358.73;;;4.36;77.99
62928;BME280;51070;52.236;-0.892;2023-01-28T09:08:11;102347.30;;;4.38;77.37
62928;BME280;51070;52.236;-0.892;2023-01-28T09:10:38;102352.30;;;4.39;77.28
62928;BME280;51070;52.236;-0.892;2023-01-28T09:13:09;102353.62;;;4.40;77.44
62928;BME280;51070;52.236;-0.892;2023-01-28T09:15:35;102354.69;;;4.43;77.51
62928;BME280;51070;52.236;-0.892;2023-01-28T09:18:02;102353.94;;;4.44;77.36
62928;BME280;51070;52.236;-0.892;2023-01-28T09:20:27;102344.28;;;4.46;77.25
62928;BME280;51070;52.236;-0.892;2023-01-28T09:22:53;102336.41;;;4.47;77.20
62928;BME280;51070;52.236;-0.892;2023-01-28T09:25:19;102331.64;;;4.50;77.44
62928;BME280;51070;52.236;-0.892;2023-01-28T09:27:44;102332.73;;;4.52;77.15
62928;BME280;51070;52.236;-0.892;2023-01-28T09:30:10;102327.02;;;4.54;77.03
62928;BME280;51070;52.236;-0.892;2023-01-28T09:32:37;102318.27;;;4.56;76.96
62928;BME280;51070;52.236;-0.892;2023-01-28T09:35:04;102317.60;;;4.58;76.88
62928;BME280;51070;52.236;-0.892;2023-01-28T09:37:29;102313.89;;;4.61;76.96
62928;BME280;51070;52.236;-0.892;2023-01-28T09:39:55;102323.15;;;4.63;76.80
62928;BME280;51070;52.236;-0.892;2023-01-28T09:42:42;102323.13;;;4.67;76.52
62928;BME280;51070;52.236;-0.892;2023-01-28T09:47:41;102312.92;;;4.79;76.64
62928;BME280;51070;52.236;-0.892;2023-01-28T09:50:17;102309.95;;;4.84;76.41
62928;BME280;51070;52.236;-0.892;2023-01-28T09:52:44;102314.42;;;4.91;76.65
62928;BME280;51070;52.236;-0.892;2023-01-28T09:55:32;102314.85;;;4.96;76.55
62928;BME280;51070;52.236;-0.892;2023-01-28T09:57:58;102315.19;;;5.02;76.19
62928;BME280;51070;52.236;-0.892;2023-01-28T10:00:34;102305.84;;;5.05;75.83
62928;BME280;51070;52.236;-0.892;2023-01-28T10:03:37;102303.92;;;5.12;75.98
62928;BME280;51070;52.236;-0.892;2023-01-28T10:12:04;102291.47;;;5.43;75.17
62928;BME280;51070;52.236;-0.892;2023-01-28T10:22:40;102285.89;;;5.82;74.28
62928;BME280;51070;52.236;-0.892;2023-01-28T10:25:17;102284.09;;;5.87;73.77
62928;BME280;51070;52.236;-0.892;2023-01-28T10:27:44;102282.05;;;5.92;74.00
62928;BME280;51070;52.236;-0.892;2023-01-28T10:30:24;102285.40;;;5.98;74.02
62928;BME280;51070;52.236;-0.892;2023-01-28T10:35:44;102292.64;;;6.02;73.83
62928;BME280;51070;52.236;-0.892;2023-01-28T10:38:13;102287.43;;;6.04;73.73
62928;BME280;51070;52.236;-0.892;2023-01-28T10:40:41;102288.31;;;6.04;73.46
62928;BME280;51070;52.236;-0.892;2023-01-28T10:43:06;102295.25;;;6.03;73.49
62928;BME280;51070;52.236;-0.892;2023-01-28T10:50:52;102293.17;;;6.05;73.77
62928;BME280;51070;52.236;-0.892;2023-01-28T10:53:18;102293.87;;;6.07;73.63
62928;BME280;51070;52.236;-0.892;2023-01-28T10:55:57;102298.33;;;6.07;73.69
62928;BME280;51070;52.236;-0.892;2023-01-28T10:58:26;102296.42;;;6.07;73.78
62928;BME280;51070;52.236;-0.892;2023-01-28T11:00:56;102296.02;;;6.04;73.78
62928;BME280;51070;52.236;-0.892;2023-01-28T11:03:24;102294.33;;;6.00;73.88
62928;BME280;51070;52.236;-0.892;2023-01-28T11:05:54;102291.70;;;5.97;74.24
62928;BME280;51070;52.236;-0.892;2023-01-28T11:08:21;102297.28;;;6.00;74.37
62928;BME280;51070;52.236;-0.892;2023-01-28T11:10:48;102298.70;;;6.03;74.26
62928;BME280;51070;52.236;-0.892;2023-01-28T11:15:59;102301.51;;;6.11;74.40
62928;BME280;51070;52.236;-0.892;2023-01-28T11:20:59;102298.23;;;6.27;74.91
62928;BME280;51070;52.236;-0.892;2023-01-28T11:23:27;102296.86;;;6.33;74.97
62928;BME280;51070;52.236;-0.892;2023-01-28T11:26:06;102300.48;;;6.41;75.11
62928;BME280;51070;52.236;-0.892;2023-01-28T11:28:34;102299.27;;;6.43;75.37
62928;BME280;51070;52.236;-0.892;2023-01-28T11:31:04;102296.65;;;6.43;75.67
62928;BME280;51070;52.236;-0.892;2023-01-28T11:33:35;102295.60;;;6.40;76.01
62928;BME280;51070;52.236;-0.892;2023-01-28T11:36:15;102293.02;;;6.40;76.16
62928;BME280;51070;52.236;-0.892;2023-01-28T11:38:58;102292.81;;;6.40;76.33
62928;BME280;51070;52.236;-0.892;2023-01-28T11:41:31;102290.90;;;6.44;76.47
62928;BME280;51070;52.236;-0.892;2023-01-28T11:43:58;102284.10;;;6.51;76.69
62928;BME280;51070;52.236;-0.892;2023-01-28T12:00:50;102296.73;;;6.53;76.96
62928;BME280;51070;52.236;-0.892;2023-01-28T12:22:41;102296.84;;;6.21;79.11
62928;BME280;51070;52.236;-0.892;2023-01-28T12:42:45;102269.30;;;6.37;79.03
62928;BME280;51070;52.236;-0.892;2023-01-28T12:45:19;102264.88;;;6.35;78.87
62928;BME280;51070;52.236;-0.892;2023-01-28T12:47:55;102258.62;;;6.31;79.07
62928;BME280;51070;52.236;-0.892;2023-01-28T12:50:31;102253.79;;;6.29;79.33
62928;BME280;51070;52.236;-0.892;2023-01-28T12:53:13;102253.71;;;6.28;79.57
62928;BME280;51070;52.236;-0.892;2023-01-28T12:55:54;102249.94;;;6.30;79.59
62928;BME280;51070;52.236;-0.892;2023-01-28T12:58:32;102242.86;;;6.32;79.46
62928;BME280;51070;52.236;-0.892;2023-01-28T13:01:05;102240.52;;;6.33;79.30
62928;BME280;51070;52.236;-0.892;2023-01-28T13:06:06;102240.12;;;6.37;79.54
62928;BME280;51070;52.236;-0.892;2023-01-28T13:08:32;102235.73;;;6.36;79.21
62928;BME280;51070;52.236;-0.892;2023-01-28T13:11:00;102232.74;;;6.30;79.19
62928;BME280;51070;52.236;-0.892;2023-01-28T13:13:37;102228.84;;;6.24;79.34
62928;BME280;51070;52.236;-0.892;2023-01-28T13:16:06;102235.18;;;6.19;79.48
62928;BME280;51070;52.236;-0.892;2023-01-28T13:18:33;102230.55;;;6.17;79.70
62928;BME280;51070;52.236;-0.892;2023-01-28T13:21:01;102234.50;;;6.21;79.74
62928;BME280;51070;52.236;-0.892;2023-01-28T13:26:54;102228.30;;;6.38;79.62
62928;BME280;51070;52.236;-0.892;2023-01-28T13:29:06;102230.28;;;6.48;79.58
62928;BME280;51070;52.236;-0.892;2023-01-28T13:31:38;102224.96;;;6.53;79.39
62928;BME280;51070;52.236;-0.892;2023-01-28T13:34:06;102221.54;;;6.55;79.06
62928;BME280;51070;52.236;-0.892;2023-01-28T13:41:42;102213.15;;;6.61;79.06
62928;BME280;51070;52.236;-0.892;2023-01-28T13:46:55;102210.79;;;6.56;78.93
62928;BME280;51070;52.236;-0.892;2023-01-28T13:49:38;102212.92;;;6.53;79.02
62928;BME280;51070;52.236;-0.892;2023-01-28T13:52:12;102214.05;;;6.49;79.15
62928;BME280;51070;52.236;-0.892;2023-01-28T14:03:40;102214.34;;;6.46;79.57
62928;BME280;51070;52.236;-0.892;2023-01-28T14:20:17;102230.56;;;6.45;79.51
62928;BME280;51070;52.236;-0.892;2023-01-28T14:22:44;102232.41;;;6.40;79.44
62928;BME280;51070;52.236;-0.892;2023-01-28T14:25:23;102234.52;;;6.36;79.50
62928;BME280;51070;52.236;-0.892;2023-01-28T14:27:52;102238.40;;;6.32;79.78
62928;BME280;51070;52.236;-0.892;2023-01-28T14:33:09;102250.35;;;6.31;79.91
62928;BME280;51070;52.236;-0.892;2023-01-28T14:35:37;102249.59;;;6.33;80.08
62928;BME280;51070;52.236;-0.892;2023-01-28T14:38:08;102249.96;;;6.36;80.25
62928;BME280;51070;52.236;-0.892;2023-01-28T14:40:38;102249.21;;;6.40;80.14
62928;BME280;51070;52.236;-0.892;2023-01-28T14:43:12;102248.80;;;6.43;80.22
62928;BME280;51070;52.236;-0.892;2023-01-28T15:02:25;102227.23;;;6.42;80.47
62928;BME280;51070;52.236;-0.892;2023-01-28T15:04:52;102225.56;;;6.40;80.53
62928;BME280;51070;52.236;-0.892;2023-01-28T15:07:25;102224.27;;;6.41;80.74
62928;BME280;51070;52.236;-0.892;2023-01-28T15:12:32;102227.38;;;6.46;80.90
62928;BME280;51070;52.236;-0.892;2023-01-28T15:15:10;102226.48;;;6.45;81.04
62928;BME280;51070;52.236;-0.892;2023-01-28T15:17:36;102223.33;;;6.47;81.20
62928;BME280;51070;52.236;-0.892;2023-01-28T15:20:02;102217.41;;;6.46;80.99
62928;BME280;51070;52.236;-0.892;2023-01-28T15:22:28;102218.84;;;6.47;81.28
62928;BME280;51070;52.236;-0.892;2023-01-28T15:24:54;102218.91;;;6.45;81.43
62928;BME280;51070;52.236;-0.892;2023-01-28T15:27:27;102222.94;;;6.44;81.22
62928;BME280;51070;52.236;-0.892;2023-01-28T15:29:56;102228.08;;;6.42;81.45
62928;BME280;51070;52.236;-0.892;2023-01-28T15:32:29;102231.60;;;6.38;81.47
62928;BME280;51070;52.236;-0.892;2023-01-28T15:34:58;102232.58;;;6.35;81.44
62928;BME280;51070;52.236;-0.892;2023-01-28T15:37:24;102228.92;;;6.32;81.63
62928;BME280;51070;52.236;-0.892;2023-01-28T15:40:04;102231.05;;;6.30;81.77